Time;durP1;ratioP1;P1;durP2;ratioP2;P2;SDS_P1;SDS_P2;PMS_P1;PMS_P2;Temp;Humidity;BMP_temperature;BMP_pressure;BME280_temperature;BME280_humidity;BME280_pressure;Samples;Min_cycle;Max_cycle;Signal;HPM_P1;HPM_P2
2022/05/18 00:01:46;;;;;;;15.48;10.15;;;;;;;17.68;77.18;101923.66;5070159;28;20124;-61
2022/05/18 00:04:12;;;;;;;13.60;10.55;;;;;;;17.65;77.46;101926.44;5072042;28;20232;-62
2022/05/18 00:06:37;;;;;;;17.25;12.15;;;;;;;17.67;77.34;101934.38;5070963;28;20111;-61
2022/05/18 00:09:03;;;;;;;18.63;12.88;;;;;;;17.59;77.20;101932.06;5071470;28;20036;-62
2022/05/18 00:11:30;;;;;;;19.88;12.00;;;;;;;17.57;77.23;101933.09;5072177;28;20032;-61
2022/05/18 00:13:56;;;;;;;19.02;13.32;;;;;;;17.52;76.96;101938.63;5072604;28;20020;-62
2022/05/18 00:16:22;;;;;;;20.20;11.77;;;;;;;17.51;76.66;101942.19;5070545;28;20066;-62
2022/05/18 00:18:48;;;;;;;16.23;11.02;;;;;;;17.46;76.90;101937.06;5070976;28;20375;-62
2022/05/18 00:21:14;;;;;;;18.20;11.27;;;;;;;17.46;76.43;101938.88;5062152;28;20048;-61
2022/05/18 00:23:39;;;;;;;26.65;14.15;;;;;;;17.42;77.29;101948.81;5049028;28;20100;-61
2022/05/18 00:26:05;;;;;;;22.27;13.98;;;;;;;17.36;78.08;101952.63;5050697;28;20021;-62
2022/05/18 00:28:31;;;;;;;18.77;12.65;;;;;;;17.35;78.08;101958.91;5057999;28;20546;-61
2022/05/18 00:30:57;;;;;;;19.00;12.90;;;;;;;17.34;77.90;101949.16;5070953;28;20070;-62
2022/05/18 00:33:23;;;;;;;15.98;12.52;;;;;;;17.33;78.04;101950.09;5068898;28;20039;-61
2022/05/18 00:35:48;;;;;;;23.63;13.38;;;;;;;17.33;77.94;101955.41;5071955;28;20024;-61
2022/05/18 00:38:14;;;;;;;20.42;13.57;;;;;;;17.32;78.30;101951.03;5065581;28;20020;-62
2022/05/18 00:40:41;;;;;;;20.52;12.38;;;;;;;17.34;78.03;101942.97;5068647;28;20467;-60
2022/05/18 00:43:29;;;;;;;20.80;13.48;;;;;;;17.33;77.93;101947.44;5066453;28;20386;-63
2022/05/18 00:45:55;;;;;;;23.73;16.27;;;;;;;17.32;78.26;101948.38;5067448;28;20024;-62
2022/05/18 00:48:20;;;;;;;22.92;14.50;;;;;;;17.33;78.03;101947.44;5067456;28;20028;-61
2022/05/18 00:50:45;;;;;;;22.17;13.57;;;;;;;17.33;77.81;101942.09;5068384;28;20039;-61
2022/05/18 00:53:18;;;;;;;25.50;14.95;;;;;;;17.33;77.69;101938.59;5067133;28;20056;-61
2022/05/18 00:55:47;;;;;;;19.92;13.77;;;;;;;17.35;77.33;101942.91;5067037;28;20036;-62
2022/05/18 00:58:19;;;;;;;23.30;14.20;;;;;;;17.34;77.47;101935.84;5051347;28;20086;-61
2022/05/18 01:00:46;;;;;;;26.73;16.13;;;;;;;17.35;77.58;101934.91;5065452;28;20145;-59
2022/05/18 01:03:23;;;;;;;24.52;15.07;;;;;;;17.37;77.41;101933.03;5061775;28;20063;-60
2022/05/18 01:05:54;;;;;;;24.15;15.85;;;;;;;17.38;77.26;101933.91;5066788;28;20125;-61
2022/05/18 01:08:33;;;;;;;21.75;15.00;;;;;;;17.36;77.39;101933.97;5065451;28;20471;-61
2022/05/18 01:10:58;;;;;;;;;;;;;;;17.37;77.67;101927.69;5067361;28;20025;-61
2022/05/18 01:13:23;;;;;;;24.83;15.73;;;;;;;17.37;77.14;101933.03;5067713;28;19962;-62
2022/05/18 01:15:49;;;;;;;21.65;14.52;;;;;;;17.39;77.33;101936.50;5067408;28;20293;-61
2022/05/18 01:18:14;;;;;;;21.88;14.15;;;;;;;17.39;77.64;101925.84;5067585;28;20485;-62
2022/05/18 01:20:42;;;;;;;24.95;17.38;;;;;;;17.46;77.12;101920.25;5067938;28;20041;-62
2022/05/18 01:23:20;;;;;;;29.08;17.88;;;;;;;17.45;77.10;101934.50;5048136;28;20064;-62
2022/05/18 01:26:07;;;;;;;32.70;18.80;;;;;;;17.41;77.32;101931.97;5068026;28;20040;-62
2022/05/18 01:28:36;;;;;;;27.70;17.70;;;;;;;17.40;77.22;101932.91;5067651;28;20119;-62
2022/05/18 01:31:04;;;;;;;31.42;19.33;;;;;;;17.41;76.88;101934.66;5066004;28;20032;-63
2022/05/18 01:33:29;;;;;;;22.13;16.93;;;;;;;17.39;77.04;101930.31;5061888;28;20020;-61
2022/05/18 01:35:55;;;;;;;27.88;19.88;;;;;;;17.36;77.34;101928.66;5067682;28;20040;-62
2022/05/18 01:38:20;;;;;;;26.17;17.25;;;;;;;17.36;77.37;101922.44;5065905;28;20919;-62
2022/05/18 01:41:14;;;;;;;28.17;19.48;;;;;;;17.39;77.43;101920.53;5067263;28;20029;-62
2022/05/18 01:44:06;;;;;;;27.13;18.65;;;;;;;17.36;77.56;101928.66;5065921;28;20020;-62
2022/05/18 01:46:32;;;;;;;27.10;19.75;;;;;;;17.34;77.67;101930.50;5063755;28;20054;-61
2022/05/18 01:48:57;;;;;;;23.45;18.38;;;;;;;17.38;77.86;101923.25;5065928;28;20106;-62
2022/05/18 01:51:31;;;;;;;25.88;18.15;;;;;;;17.32;77.97;101924.41;5067088;28;20059;-61
2022/05/18 01:53:56;;;;;;;27.45;18.17;;;;;;;17.27;77.96;101926.41;5066293;28;20025;-61
2022/05/18 01:56:25;;;;;;;27.30;19.88;;;;;;;17.25;78.16;101928.28;5066909;28;20497;-62
2022/05/18 01:58:50;;;;;;;28.38;17.77;;;;;;;17.23;78.05;101922.16;5067063;28;20475;-61
2022/05/18 02:01:15;;;;;;;28.88;18.02;;;;;;;17.21;78.02;101922.22;5066450;28;20028;-61
2022/05/18 02:03:41;;;;;;;27.27;16.92;;;;;;;17.22;77.88;101917.75;5066912;28;20040;-61
2022/05/18 02:06:06;;;;;;;23.17;16.08;;;;;;;17.24;77.95;101916.75;5066383;28;20731;-61
2022/05/18 02:08:32;;;;;;;20.83;14.00;;;;;;;17.26;77.91;101919.34;5065869;28;20127;-63
2022/05/18 02:10:57;;;;;;;20.33;15.00;;;;;;;17.26;77.75;101919.34;5067069;28;20029;-61
2022/05/18 02:13:23;;;;;;;26.60;15.95;;;;;;;17.27;77.71;101913.94;5066599;28;20417;-63
2022/05/18 02:15:48;;;;;;;25.48;16.23;;;;;;;17.30;77.60;101918.25;5066529;28;20115;-60
2022/05/18 02:18:13;;;;;;;24.42;16.42;;;;;;;17.36;77.00;101906.47;5066208;28;20391;-61
2022/05/18 02:20:39;;;;;;;23.90;16.75;;;;;;;17.39;76.92;101909.88;5066656;28;20498;-61
2022/05/18 02:23:05;;;;;;;23.25;16.38;;;;;;;17.43;76.73;101908.78;5064609;28;20471;-63
2022/05/18 02:25:32;;;;;;;28.63;17.27;;;;;;;17.46;76.38;101906.91;5066398;28;20076;-62
2022/05/18 02:27:58;;;;;;;29.33;17.75;;;;;;;17.48;76.04;101908.56;5067176;28;20029;-64
2022/05/18 02:30:23;;;;;;;28.20;17.02;;;;;;;17.51;76.03;101916.44;5066050;28;20505;-62
2022/05/18 02:32:49;;;;;;;27.15;18.20;;;;;;;17.54;75.65;101913.63;5048127;28;20127;-62
2022/05/18 02:35:14;;;;;;;26.80;16.83;;;;;;;17.57;75.57;101923.25;5066115;28;20414;-62
2022/05/18 02:37:39;;;;;;;30.67;17.48;;;;;;;17.60;75.11;101923.13;5065713;28;20032;-61
2022/05/18 02:40:06;;;;;;;26.88;17.02;;;;;;;17.68;75.12;101930.78;5065587;28;20024;-60
2022/05/18 02:42:31;;;;;;;26.55;17.48;;;;;;;17.72;74.91;101923.47;5066036;28;20040;-61
2022/05/18 02:44:57;;;;;;;21.88;16.65;;;;;;;17.76;74.90;101928.59;5066550;28;20056;-61
2022/05/18 02:47:23;;;;;;;23.60;14.88;;;;;;;17.81;74.16;101931.03;5065410;28;20029;-61
2022/05/18 02:49:48;;;;;;;25.58;16.73;;;;;;;17.84;74.01;101936.22;5066065;28;20115;-61
2022/05/18 02:52:13;;;;;;;26.17;16.23;;;;;;;17.77;74.00;101929.47;5065132;28;20096;-61
2022/05/18 02:57:23;;;;;;;19.60;15.25;;;;;;;17.74;73.89;101929.59;5065942;28;20142;-61
2022/05/18 02:59:49;;;;;;;22.38;15.27;;;;;;;17.70;73.97;101939.53;5065241;28;20060;-62
2022/05/18 03:02:14;;;;;;;28.80;16.42;;;;;;;17.74;74.06;101945.59;5064924;28;20029;-62
2022/05/18 03:04:39;;;;;;;23.90;16.30;;;;;;;17.77;73.69;101945.47;5064724;28;20399;-62
2022/05/18 03:07:05;;;;;;;22.70;15.77;;;;;;;17.75;74.19;101936.66;5065134;28;20047;-60
2022/05/18 03:09:31;;;;;;;22.23;16.17;;;;;;;17.78;73.72;101941.84;5066036;28;20025;-61
2022/05/18 03:11:56;;;;;;;27.05;16.20;;;;;;;17.83;73.92;101944.31;5065911;28;20021;-61
2022/05/18 03:14:22;;;;;;;24.77;15.25;;;;;;;17.84;73.81;101935.34;5065737;28;20479;-61
2022/05/18 03:16:48;;;;;;;35.03;21.88;;;;;;;17.85;73.95;101947.78;5065120;28;20031;-62
2022/05/18 03:19:13;;;;;;;28.67;18.83;;;;;;;17.86;73.68;101938.84;5065636;28;20153;-61
2022/05/18 03:24:23;;;;;;;26.55;19.88;;;;;;;17.86;73.77;101957.50;5065307;28;20081;-61
2022/05/18 03:26:48;;;;;;;34.22;22.13;;;;;;;17.85;74.00;101985.09;5066567;28;20021;-61
2022/05/18 03:29:14;;;;;;;34.53;24.10;;;;;;;17.87;73.69;101978.75;5065449;28;20028;-62
2022/05/18 03:31:39;;;;;;;32.72;21.25;;;;;;;17.93;74.27;101965.13;5065433;28;20553;-59
2022/05/18 03:34:05;;;;;;;43.55;27.10;;;;;;;17.90;74.09;101978.59;5065710;28;20025;-60
2022/05/18 03:36:32;;;;;;;35.05;23.17;;;;;;;17.98;74.03;101980.91;5065888;28;20253;-60
2022/05/18 03:38:57;;;;;;;40.65;26.58;;;;;;;18.00;73.93;101992.34;5065649;28;20020;-61
2022/05/18 03:41:22;;;;;;;33.42;21.52;;;;;;;18.06;74.20;101984.06;5065191;28;20035;-59
2022/05/18 03:43:48;;;;;;;33.00;21.67;;;;;;;18.06;73.83;101986.75;5065364;28;20441;-58
2022/05/18 03:46:13;;;;;;;29.67;20.30;;;;;;;18.03;73.93;101994.03;5064842;28;20513;-57
2022/05/18 03:48:39;;;;;;;33.25;21.60;;;;;;;18.01;73.96;101985.22;5065449;28;20043;-58
2022/05/18 03:51:06;;;;;;;33.08;23.85;;;;;;;17.97;73.97;101986.31;5065348;28;20016;-57
2022/05/18 03:53:32;;;;;;;34.17;23.05;;;;;;;17.94;74.08;101985.53;5064498;28;20058;-60
2022/05/18 03:55:57;;;;;;;38.40;24.33;;;;;;;17.92;74.64;101998.06;5065913;28;20065;-59
2022/05/18 03:58:23;;;;;;;39.65;26.58;;;;;;;17.90;74.93;101999.06;5064660;28;20095;-59
2022/05/18 04:00:51;;;;;;;41.58;26.05;;;;;;;17.94;74.52;101987.31;5063162;28;20033;-61
2022/05/18 04:03:18;;;;;;;39.40;24.13;;;;;;;18.01;74.52;101995.91;5065243;28;20368;-60
2022/05/18 04:05:44;;;;;;;30.90;22.88;;;;;;;18.08;74.37;101994.66;5065010;28;20056;-60
2022/05/18 04:08:11;;;;;;;41.22;26.33;;;;;;;18.11;74.76;101988.34;5064781;28;20107;-60
2022/05/18 04:10:38;;;;;;;38.58;24.83;;;;;;;18.19;74.13;101989.72;5064482;28;20012;-60
2022/05/18 04:13:04;;;;;;;36.15;24.27;;;;;;;18.23;74.11;101987.78;5068313;28;20044;-60
2022/05/18 04:15:30;;;;;;;35.22;24.60;;;;;;;18.35;73.58;101994.31;5069197;28;20031;-64
2022/05/18 04:17:55;;;;;;;37.45;24.25;;;;;;;18.41;73.58;101999.34;5068759;28;20070;-60
2022/05/18 04:20:23;;;;;;;38.40;24.90;;;;;;;18.49;73.19;102000.78;5068502;28;21229;-59
2022/05/18 04:22:49;;;;;;;37.90;23.10;;;;;;;18.59;72.73;102001.19;5068138;28;20044;-59
2022/05/18 04:25:18;;;;;;;32.22;23.00;;;;;;;18.67;72.34;102002.53;5067567;28;20039;-59
2022/05/18 04:27:47;;;;;;;33.25;22.90;;;;;;;18.78;72.43;102002.00;5068533;28;20070;-60
2022/05/18 04:30:13;;;;;;;36.00;23.38;;;;;;;18.85;71.85;101999.88;5068608;28;20028;-59
2022/05/18 04:32:38;;;;;;;32.40;22.95;;;;;;;18.94;71.63;101998.56;5050490;28;20082;-59
2022/05/18 04:35:04;;;;;;;33.30;21.25;;;;;;;19.06;71.25;102003.25;5068344;28;20039;-61
2022/05/18 04:37:30;;;;;;;35.03;23.38;;;;;;;19.11;70.94;102000.38;5068460;28;20102;-60
2022/05/18 04:39:55;;;;;;;32.92;22.45;;;;;;;19.17;70.76;101999.19;5067950;28;20033;-59
2022/05/18 04:42:22;;;;;;;36.50;21.83;;;;;;;19.30;70.27;102007.44;5068582;28;20215;-60
2022/05/18 04:44:49;;;;;;;32.85;22.40;;;;;;;19.30;70.75;102015.47;5068445;28;20024;-61
2022/05/18 04:47:15;;;;;;;26.20;18.77;;;;;;;19.42;70.50;102016.63;5067632;28;20031;-60
2022/05/18 04:49:40;;;;;;;27.88;20.90;;;;;;;19.52;69.85;102008.97;5068383;28;20127;-61
2022/05/18 04:52:07;;;;;;;33.15;21.35;;;;;;;19.57;69.55;102013.09;5067563;28;20039;-60
2022/05/18 04:54:34;;;;;;;28.60;20.73;;;;;;;19.56;69.52;102018.53;5066348;28;20148;-60
2022/05/18 04:56:59;;;;;;;30.73;21.02;;;;;;;19.59;69.57;102018.38;5068506;28;20078;-61
2022/05/18 04:59:24;;;;;;;30.23;19.50;;;;;;;19.68;69.57;102025.03;5066801;28;20433;-60
2022/05/18 05:01:50;;;;;;;33.25;20.35;;;;;;;19.74;69.02;102026.53;5066170;28;20036;-60
2022/05/18 05:04:15;;;;;;;23.15;16.92;;;;;;;19.83;69.24;102032.25;5065382;28;20067;-60
2022/05/18 05:06:40;;;;;;;30.95;18.77;;;;;;;19.95;68.31;102035.19;5067132;28;20154;-60
2022/05/18 05:09:06;;;;;;;22.00;16.25;;;;;;;20.02;68.58;102030.41;5066837;28;20033;-59
2022/05/18 05:11:31;;;;;;;28.92;20.23;;;;;;;20.09;68.14;102029.09;5066854;28;20025;-62
2022/05/18 05:13:57;;;;;;;33.88;18.35;;;;;;;20.18;68.61;102027.72;5067154;28;20201;-60
2022/05/18 05:16:22;;;;;;;32.75;20.08;;;;;;;20.16;69.56;102035.84;5066019;28;20501;-62
2022/05/18 05:18:48;;;;;;;28.08;18.27;;;;;;;20.19;68.69;102026.78;5066998;28;20303;-62
2022/05/18 05:21:13;;;;;;;30.65;20.13;;;;;;;20.22;68.87;102033.78;5065790;28;20029;-62
2022/05/18 05:23:38;;;;;;;29.40;19.70;;;;;;;20.24;68.53;102045.25;5066307;28;20078;-61
2022/05/18 05:26:04;;;;;;;36.67;20.52;;;;;;;20.26;68.89;102038.00;5064042;28;20048;-65
2022/05/18 05:28:30;;;;;;;28.30;19.52;;;;;;;20.35;68.92;102047.31;5057528;28;20529;-61
2022/05/18 05:31:03;;;;;;;30.65;19.40;;;;;;;20.41;69.04;102049.66;5057851;28;20021;-62
2022/05/18 05:33:28;;;;;;;31.80;18.27;;;;;;;20.60;68.72;102054.81;5056188;28;20013;-63
2022/05/18 05:35:54;;;;;;;33.90;18.45;;;;;;;20.74;67.92;102053.16;5058636;28;20036;-61
2022/05/18 05:38:19;;;;;;;28.92;17.15;;;;;;;20.90;66.58;102054.03;5055112;28;20017;-61
2022/05/18 05:40:46;;;;;;;29.23;16.75;;;;;;;21.06;65.97;102063.81;5058677;28;20601;-62
2022/05/18 05:43:12;;;;;;;32.05;18.80;;;;;;;21.18;65.03;102056.88;5058995;28;20072;-61
2022/05/18 05:45:38;;;;;;;27.67;16.88;;;;;;;21.25;65.15;102052.84;5057683;28;20655;-61
2022/05/18 05:48:07;;;;;;;25.58;14.43;;;;;;;21.37;65.09;102069.16;5055691;28;20032;-65
2022/05/18 05:50:33;;;;;;;34.03;14.43;;;;;;;21.46;64.37;102065.91;5058605;28;20020;-63
2022/05/18 05:52:59;;;;;;;25.83;14.25;;;;;;;21.52;64.17;102068.22;5064726;28;20032;-61
2022/05/18 05:55:25;;;;;;;24.42;15.45;;;;;;;21.44;64.37;102068.72;5053694;28;20029;-63
2022/05/18 05:57:53;;;;;;;21.63;15.07;;;;;;;21.37;64.60;102074.53;5046401;28;20023;-63
2022/05/18 06:00:18;;;;;;;22.13;14.60;;;;;;;21.30;65.29;102076.72;5046756;28;20071;-60
2022/05/18 06:02:44;;;;;;;18.70;13.57;;;;;;;21.24;65.66;102085.09;5045840;28;20817;-61
2022/05/18 06:05:09;;;;;;;20.67;13.07;;;;;;;21.23;66.40;102088.75;5046266;28;20429;-61
2022/05/18 06:07:34;;;;;;;21.30;12.70;;;;;;;21.24;66.84;102103.88;5060916;28;20036;-62
2022/05/18 06:10:00;;;;;;;18.60;12.05;;;;;;;21.12;67.63;102100.09;5066283;28;20025;-62
2022/05/18 06:12:25;;;;;;;22.40;11.48;;;;;;;21.04;67.62;102106.78;5065877;28;20024;-60
2022/05/18 06:14:51;;;;;;;14.45;11.63;;;;;;;21.03;68.63;102105.06;5063959;28;20660;-61
2022/05/18 06:17:16;;;;;;;16.80;11.43;;;;;;;21.01;68.51;102109.63;5065842;28;20024;-62
2022/05/18 06:19:42;;;;;;;17.00;10.95;;;;;;;21.00;68.63;102107.91;5065671;28;20194;-60
2022/05/18 06:22:07;;;;;;;16.50;10.85;;;;;;;20.98;69.05;102114.31;5064446;28;20127;-63
2022/05/18 06:24:32;;;;;;;14.60;10.32;;;;;;;20.97;69.39;102108.09;5039299;28;20032;-63
2022/05/18 06:26:58;;;;;;;20.45;10.63;;;;;;;21.05;69.85;102116.56;5052734;28;20040;-65
2022/05/18 06:29:24;;;;;;;13.90;9.27;;;;;;;21.03;69.84;102114.91;5056863;28;20052;-62
2022/05/18 06:31:50;;;;;;;14.13;8.35;;;;;;;21.07;70.39;102119.16;5056131;28;20099;-63
2022/05/18 06:34:16;;;;;;;11.93;7.57;;;;;;;21.16;69.72;102117.75;5057132;28;20086;-67
2022/05/18 06:36:41;;;;;;;13.68;6.93;;;;;;;21.25;69.00;102125.22;5064320;28;20186;-64
2022/05/18 06:39:06;;;;;;;15.18;6.55;;;;;;;21.19;68.87;102131.81;5065139;28;20024;-62
2022/05/18 06:41:33;;;;;;;13.95;7.05;;;;;;;21.31;68.85;102137.44;5064946;28;20036;-65
2022/05/18 06:44:02;;;;;;;15.00;7.05;;;;;;;21.26;68.84;102142.19;5063083;28;20044;-63
2022/05/18 06:46:28;;;;;;;12.35;6.72;;;;;;;21.19;68.47;102137.19;5065970;28;20029;-65
2022/05/18 06:48:55;;;;;;;14.65;7.00;;;;;;;21.24;68.78;102141.41;5038362;28;20066;-64
2022/05/18 06:51:23;;;;;;;15.32;7.35;;;;;;;21.13;68.43;102148.25;5039463;28;20445;-64
2022/05/18 06:53:51;;;;;;;18.33;7.68;;;;;;;21.07;68.76;102152.16;5038469;28;20104;-63
2022/05/18 06:56:20;;;;;;;12.33;6.60;;;;;;;21.11;67.85;102143.94;5041636;28;20016;-63
2022/05/18 06:58:47;;;;;;;9.25;6.47;;;;;;;21.20;67.70;102152.28;5034507;28;20028;-62
2022/05/18 07:01:13;;;;;;;15.27;5.68;;;;;;;21.11;66.71;102151.97;5036222;28;20520;-63
2022/05/18 07:03:39;;;;;;;11.57;5.40;;;;;;;21.12;65.63;102154.56;5024650;28;20029;-63
2022/05/18 07:06:05;;;;;;;8.18;5.20;;;;;;;21.17;65.61;102163.22;5025381;28;20048;-63
2022/05/18 07:08:30;;;;;;;16.33;5.47;;;;;;;21.24;65.29;102165.50;5032415;28;20028;-63
2022/05/18 07:10:56;;;;;;;12.10;5.07;;;;;;;21.35;64.78;102165.78;5043865;28;20039;-63
2022/05/18 07:13:21;;;;;;;12.20;5.03;;;;;;;21.37;64.83;102158.47;5037832;28;20040;-63
2022/05/18 07:15:47;;;;;;;10.13;5.50;;;;;;;21.43;63.86;102173.38;5025670;28;20057;-62
2022/05/18 07:18:13;;;;;;;15.88;5.78;;;;;;;21.32;64.50;102172.19;5031034;28;20032;-63
2022/05/18 07:20:38;;;;;;;12.57;5.47;;;;;;;21.38;64.34;102168.28;5045346;28;20255;-63
2022/05/18 07:23:03;;;;;;;9.35;5.68;;;;;;;21.52;64.10;102174.63;5045227;28;20032;-67
2022/05/18 07:25:29;;;;;;;12.10;5.55;;;;;;;21.57;63.50;102169.84;5043581;28;20039;-65
2022/05/18 07:27:54;;;;;;;15.80;6.50;;;;;;;21.45;64.15;102174.13;5046200;28;20033;-64
2022/05/18 07:30:19;;;;;;;13.20;6.18;;;;;;;21.53;63.64;102179.03;5044685;28;20471;-63
2022/05/18 07:32:45;;;;;;;14.93;6.55;;;;;;;21.37;63.53;102177.25;5045144;28;20383;-64
2022/05/18 07:35:10;;;;;;;13.35;7.25;;;;;;;21.37;63.65;102171.88;5045782;28;20025;-65
2022/05/18 07:37:36;;;;;;;14.50;6.88;;;;;;;21.41;63.53;102175.25;5045280;28;20036;-65
2022/05/18 07:40:01;;;;;;;11.80;6.50;;;;;;;21.37;63.74;102179.94;5044179;28;20035;-63
2022/05/18 07:42:27;;;;;;;12.48;6.95;;;;;;;21.28;63.60;102175.97;5045724;28;20530;-64
2022/05/18 07:44:52;;;;;;;16.30;6.85;;;;;;;21.22;64.21;102181.69;5045200;28;20051;-65
2022/05/18 07:47:20;;;;;;;17.33;7.53;;;;;;;21.05;64.84;102204.13;5047787;28;20024;-65
2022/05/18 07:49:45;;;;;;;13.65;7.10;;;;;;;21.19;64.51;102201.50;5041630;28;20032;-63
2022/05/18 07:52:10;;;;;;;12.38;7.22;;;;;;;21.23;64.45;102204.00;5027321;28;20026;-64
2022/05/18 07:54:36;;;;;;;14.48;7.57;;;;;;;21.25;64.39;102202.94;5028673;28;20021;-66
2022/05/18 07:57:07;;;;;;;16.48;7.78;;;;;;;21.30;63.91;102198.19;5047042;28;20554;-63
2022/05/18 07:59:32;;;;;;;15.25;7.90;;;;;;;21.32;63.58;102214.19;5046240;28;20099;-64
2022/05/18 08:01:58;;;;;;;12.48;8.30;;;;;;;21.38;63.66;102208.47;5062265;28;20405;-63
2022/05/18 08:04:23;;;;;;;18.10;8.43;;;;;;;21.42;63.92;102207.34;5068619;28;20071;-65
2022/05/18 08:06:48;;;;;;;17.80;8.88;;;;;;;21.51;63.16;102221.16;5067682;28;20056;-63
2022/05/18 08:09:15;;;;;;;16.90;8.57;;;;;;;21.61;63.42;102230.38;5068914;28;20099;-63
2022/05/18 08:17:09;;;;;;;23.17;9.02;;;;;;;21.49;62.50;102231.13;5067589;28;20102;-64
2022/05/18 08:19:34;;;;;;;17.20;9.40;;;;;;;21.36;62.67;102229.16;5069579;28;20020;-65
2022/05/18 08:21:59;;;;;;;17.27;9.75;;;;;;;21.35;63.45;102240.81;5066537;28;20127;-64
2022/05/18 08:24:25;;;;;;;16.23;9.43;;;;;;;21.37;63.29;102238.06;5068642;28;20503;-67
2022/05/18 08:26:50;;;;;;;16.45;9.10;;;;;;;21.51;63.47;102239.91;5067959;28;20091;-65
2022/05/18 08:29:15;;;;;;;18.65;10.35;;;;;;;21.49;63.03;102250.72;5068474;28;20059;-64
2022/05/18 08:31:41;;;;;;;21.00;9.40;;;;;;;21.59;62.39;102243.03;5068986;28;20025;-66
2022/05/18 08:34:06;;;;;;;25.25;10.43;;;;;;;21.54;63.07;102243.31;5068777;28;20028;-66
2022/05/18 08:36:32;;;;;;;19.13;9.57;;;;;;;21.59;63.16;102253.75;5068088;28;20466;-64
2022/05/18 08:38:58;;;;;;;14.50;9.88;;;;;;;21.55;62.41;102249.53;5067665;28;20402;-65
2022/05/18 08:41:31;;;;;;;20.40;10.18;;;;;;;21.48;62.60;102258.88;5067935;28;20051;-65
2022/05/18 08:44:00;;;;;;;14.45;10.02;;;;;;;21.54;62.78;102255.84;5063459;28;20021;-67
2022/05/18 08:46:31;;;;;;;16.73;11.25;;;;;;;21.56;62.81;102259.31;5057438;28;20931;-67
2022/05/18 08:49:20;;;;;;;23.02;10.82;;;;;;;21.74;62.31;102252.00;5058441;28;20040;-66
2022/05/18 08:51:55;;;;;;;18.15;10.90;;;;;;;21.68;62.19;102242.50;5045126;28;20036;-64
2022/05/18 08:54:51;;;;;;;19.58;10.85;;;;;;;21.69;62.11;102254.94;5055281;28;20028;-64
2022/05/18 08:57:27;;;;;;;20.00;11.05;;;;;;;21.71;62.05;102258.38;5047721;28;20028;-65
2022/05/18 08:59:56;;;;;;;22.05;10.63;;;;;;;21.67;61.74;102262.19;5048052;28;20053;-66
2022/05/18 09:02:26;;;;;;;20.42;11.57;;;;;;;21.82;61.49;102270.31;5058533;28;20086;-66
2022/05/18 09:05:13;;;;;;;21.52;10.48;;;;;;;22.00;61.57;102256.78;5058873;28;20678;-66
2022/05/18 09:07:44;;;;;;;20.15;10.82;;;;;;;21.92;61.84;102259.94;5055094;28;20495;-67
2022/05/18 09:10:21;;;;;;;21.60;10.98;;;;;;;22.00;61.09;102264.84;5054408;28;20056;-67
2022/05/18 09:12:49;;;;;;;16.42;9.80;;;;;;;21.89;61.73;102257.41;5054803;28;20496;-68
2022/05/18 09:15:17;;;;;;;19.23;10.57;;;;;;;21.84;61.14;102261.25;5053567;28;20078;-68
2022/05/18 09:18:00;;;;;;;25.88;12.18;;;;;;;21.81;61.42;102263.25;5056948;28;20467;-69
2022/05/18 09:20:26;;;;;;;17.42;10.05;;;;;;;21.88;61.69;102267.28;5057218;28;20108;-69
2022/05/18 09:23:20;;;;;;;18.63;10.55;;;;;;;22.04;61.57;102269.94;5051563;28;20037;-68
2022/05/18 09:26:07;;;;;;;18.83;10.35;;;;;;;22.04;60.66;102271.75;5053424;28;20031;-70
2022/05/18 09:28:38;;;;;;;22.27;10.95;;;;;;;22.18;60.64;102271.75;5062995;28;20383;-70
2022/05/18 09:31:29;;;;;;;16.90;10.57;;;;;;;22.28;60.31;102273.88;5054987;28;20107;-69
2022/05/18 09:34:21;;;;;;;16.92;10.25;;;;;;;22.49;59.80;102268.16;5059158;28;20021;-68
2022/05/18 09:36:50;;;;;;;17.40;10.75;;;;;;;22.45;59.88;102262.97;5053834;28;20475;-68
2022/05/18 09:39:17;;;;;;;18.42;10.23;;;;;;;22.57;59.75;102271.19;5056420;28;20032;-70
2022/05/18 09:41:53;;;;;;;17.70;10.10;;;;;;;22.57;59.83;102260.44;5057387;28;20036;-68
2022/05/18 09:44:36;;;;;;;17.17;9.38;;;;;;;22.61;60.26;102272.78;5055219;28;20033;-65
2022/05/18 09:47:02;;;;;;;18.08;9.40;;;;;;;22.79;59.21;102264.53;5057512;28;20395;-68
2022/05/18 09:49:35;;;;;;;20.70;8.70;;;;;;;22.90;58.87;102264.69;5059906;28;20029;-69
2022/05/18 09:52:03;;;;;;;14.38;8.85;;;;;;;23.03;58.28;102267.44;5055314;28;21284;-70
2022/05/18 09:54:30;;;;;;;14.32;8.40;;;;;;;23.00;58.73;102274.84;5059740;28;20107;-70
2022/05/18 09:57:09;;;;;;;15.07;8.35;;;;;;;23.11;58.13;102266.94;5065880;28;20119;-71
2022/05/18 09:59:48;;;;;;;15.23;9.20;;;;;;;23.23;57.70;102279.59;5065927;28;20043;-70
2022/05/18 10:07:51;;;;;;;18.70;9.83;;;;;;;23.36;58.08;102270.72;5065639;28;20046;-68
2022/05/18 10:10:19;;;;;;;14.02;8.00;;;;;;;23.46;56.71;102262.94;5065139;28;20278;-68
2022/05/18 10:12:56;;;;;;;12.63;7.33;;;;;;;23.54;56.06;102275.88;5065140;28;20051;-67
2022/05/18 10:15:37;;;;;;;13.48;7.63;;;;;;;23.76;55.17;102269.03;5063846;28;20466;-68
2022/05/18 10:18:30;;;;;;;10.63;7.00;;;;;;;23.93;54.50;102263.34;5065083;28;20017;-68
2022/05/18 10:21:21;;;;;;;14.48;6.60;;;;;;;23.54;54.70;102265.97;5064811;28;20036;-67
2022/05/18 10:23:49;;;;;;;12.27;6.07;;;;;;;23.62;54.98;102259.22;5064419;28;20143;-67
2022/05/18 10:26:28;;;;;;;10.20;5.05;;;;;;;23.94;52.83;102266.91;5066429;28;20044;-68
2022/05/18 10:29:01;;;;;;;7.88;4.55;;;;;;;24.24;52.29;102273.88;5066358;28;20414;-68
2022/05/18 10:31:33;;;;;;;9.10;5.15;;;;;;;24.45;51.49;102276.00;5066210;28;20442;-68
2022/05/18 10:34:11;;;;;;;6.70;4.47;;;;;;;24.59;50.04;102277.75;5066258;28;20368;-71
2022/05/18 10:36:49;;;;;;;7.68;3.78;;;;;;;24.73;49.44;102271.34;5065880;28;20166;-67
2022/05/18 10:39:38;;;;;;;8.48;3.75;;;;;;;24.68;48.39;102273.53;5058552;28;20057;-68
2022/05/18 10:42:28;;;;;;;9.70;3.38;;;;;;;24.74;48.95;102264.97;5062316;28;20081;-67
2022/05/18 10:45:14;;;;;;;6.30;3.45;;;;;;;25.31;46.65;102267.22;5065289;28;20554;-66
2022/05/18 10:47:47;;;;;;;6.70;2.55;;;;;;;25.98;44.77;102273.84;5066196;28;20025;-66
2022/05/18 10:50:20;;;;;;;7.22;3.40;;;;;;;26.26;44.10;102262.72;5064122;28;20471;-66
2022/05/18 10:52:45;;;;;;;6.28;3.00;;;;;;;26.68;42.40;102262.16;5066052;28;20100;-66
2022/05/18 10:55:15;;;;;;;8.13;2.75;;;;;;;26.79;43.00;102268.53;5064741;28;20041;-66
2022/05/18 10:57:47;;;;;;;5.50;3.00;;;;;;;27.05;41.97;102274.53;5065444;28;20031;-65
2022/05/18 11:00:14;;;;;;;7.80;2.70;;;;;;;26.96;42.52;102277.94;5055551;28;20105;-64
2022/05/18 11:02:58;;;;;;;7.85;3.30;;;;;;;26.84;41.81;102283.38;5055700;28;20024;-65
2022/05/18 11:05:38;;;;;;;5.70;3.05;;;;;;;26.35;42.34;102285.47;5071277;28;20949;-67
2022/05/18 11:08:08;;;;;;;10.13;3.10;;;;;;;26.09;43.06;102294.63;5055479;28;20494;-64
2022/05/18 11:10:53;;;;;;;6.60;3.50;;;;;;;25.94;42.64;102280.47;5056750;28;20144;-65
2022/05/18 11:13:25;;;;;;;7.82;3.47;;;;;;;25.87;43.68;102290.03;5056808;28;20479;-65
2022/05/18 11:15:59;;;;;;;6.97;2.97;;;;;;;25.83;44.05;102288.53;5052394;28;20350;-66
2022/05/18 11:18:31;;;;;;;5.20;3.60;;;;;;;25.51;44.52;102279.19;5053071;28;20080;-65
2022/05/18 11:21:15;;;;;;;5.97;3.28;;;;;;;25.13;45.42;102282.94;5048409;28;20063;-65
2022/05/18 11:24:03;;;;;;;6.75;3.78;;;;;;;24.82;46.15;102275.19;5059942;28;20100;-65
2022/05/18 11:27:20;;;;;;;6.50;3.35;;;;;;;24.86;46.90;102274.00;5050399;28;20028;-64
2022/05/18 11:30:08;;;;;;;7.05;3.85;;;;;;;24.61;48.44;102275.78;5048924;28;20036;-66
2022/05/18 11:33:11;;;;;;;7.05;3.05;;;;;;;24.83;47.76;102269.69;5064330;28;20111;-63
2022/05/18 11:36:02;;;;;;;8.30;3.60;;;;;;;25.07;46.26;102271.59;5065286;28;20383;-65
2022/05/18 11:38:36;;;;;;;7.60;3.80;;;;;;;25.15;46.13;102270.16;5064806;28;20021;-65